sensor_id;sensor_type;location;lat;lon;timestamp;P1;durP1;ratioP1;P2;durP2;ratioP2
70985;SDS011;58645;43.068;25.610;2023-03-01T00:01:10;5.60;;;2.40;;
70985;SDS011;58645;43.068;25.610;2023-03-01T00:03:41;4.82;;;2.80;;
70985;SDS011;58645;43.068;25.610;2023-03-01T00:06:08;5.40;;;2.75;;
70985;SDS011;58645;43.068;25.610;2023-03-01T00:08:34;5.72;;;3.17;;
70985;SDS011;58645;43.068;25.610;2023-03-01T00:11:08;5.05;;;2.75;;
70985;SDS011;58645;43.068;25.610;2023-03-01T00:13:40;4.63;;;2.35;;
70985;SDS011;58645;43.068;25.610;2023-03-01T00:18:35;4.85;;;2.58;;
70985;SDS011;58645;43.068;25.610;2023-03-01T00:21:01;5.20;;;2.80;;
70985;SDS011;58645;43.068;25.610;2023-03-01T00:23:27;4.75;;;2.50;;
70985;SDS011;58645;43.068;25.610;2023-03-01T00:25:53;5.60;;;3.00;;
70985;SDS011;58645;43.068;25.610;2023-03-01T00:28:20;5.05;;;2.42;;
70985;SDS011;58645;43.068;25.610;2023-03-01T00:30:46;6.72;;;3.30;;
70985;SDS011;58645;43.068;25.610;2023-03-01T00:33:12;4.70;;;2.60;;
70985;SDS011;58645;43.068;25.610;2023-03-01T00:35:38;6.68;;;3.00;;
70985;SDS011;58645;43.068;25.610;2023-03-01T00:38:04;4.63;;;2.35;;
70985;SDS011;58645;43.068;25.610;2023-03-01T00:40:32;5.82;;;2.50;;
70985;SDS011;58645;43.068;25.610;2023-03-01T00:42:59;3.90;;;2.00;;
70985;SDS011;58645;43.068;25.610;2023-03-01T00:45:25;4.72;;;2.13;;
70985;SDS011;58645;43.068;25.610;2023-03-01T00:50:17;5.07;;;2.38;;
70985;SDS011;58645;43.068;25.610;2023-03-01T00:52:43;5.15;;;2.67;;
70985;SDS011;58645;43.068;25.610;2023-03-01T00:55:09;5.38;;;2.95;;
70985;SDS011;58645;43.068;25.610;2023-03-01T00:57:36;5.55;;;2.60;;
70985;SDS011;58645;43.068;25.610;2023-03-01T01:00:03;4.70;;;2.72;;
70985;SDS011;58645;43.068;25.610;2023-03-01T01:02:32;5.47;;;2.95;;
70985;SDS011;58645;43.068;25.610;2023-03-01T01:04:59;6.68;;;3.22;;
70985;SDS011;58645;43.068;25.610;2023-03-01T01:07:24;5.18;;;2.72;;
70985;SDS011;58645;43.068;25.610;2023-03-01T01:09:50;6.38;;;3.20;;
70985;SDS011;58645;43.068;25.610;2023-03-01T01:12:16;6.80;;;3.45;;
70985;SDS011;58645;43.068;25.610;2023-03-01T01:14:42;6.35;;;3.20;;
70985;SDS011;58645;43.068;25.610;2023-03-01T01:17:07;6.82;;;3.88;;
70985;SDS011;58645;43.068;25.610;2023-03-01T01:19:33;6.93;;;3.85;;
70985;SDS011;58645;43.068;25.610;2023-03-01T01:21:59;7.63;;;3.85;;
70985;SDS011;58645;43.068;25.610;2023-03-01T01:24:25;9.65;;;4.32;;
70985;SDS011;58645;43.068;25.610;2023-03-01T01:26:51;8.48;;;4.55;;
70985;SDS011;58645;43.068;25.610;2023-03-01T01:29:16;8.88;;;4.63;;
70985;SDS011;58645;43.068;25.610;2023-03-01T01:31:42;9.48;;;4.97;;
70985;SDS011;58645;43.068;25.610;2023-03-01T01:34:11;9.15;;;4.95;;
70985;SDS011;58645;43.068;25.610;2023-03-01T01:36:39;7.40;;;3.92;;
70985;SDS011;58645;43.068;25.610;2023-03-01T01:39:05;6.07;;;3.45;;
70985;SDS011;58645;43.068;25.610;2023-03-01T01:41:31;5.18;;;2.95;;
70985;SDS011;58645;43.068;25.610;2023-03-01T01:44:14;6.20;;;2.85;;
70985;SDS011;58645;43.068;25.610;2023-03-01T01:49:58;5.35;;;3.00;;
70985;SDS011;58645;43.068;25.610;2023-03-01T01:57:34;4.75;;;2.38;;
70985;SDS011;58645;43.068;25.610;2023-03-01T02:00:07;3.85;;;2.22;;
70985;SDS011;58645;43.068;25.610;2023-03-01T02:02:35;3.67;;;2.15;;
70985;SDS011;58645;43.068;25.610;2023-03-01T02:05:04;4.40;;;2.40;;
70985;SDS011;58645;43.068;25.610;2023-03-01T02:07:49;4.82;;;2.67;;
70985;SDS011;58645;43.068;25.610;2023-03-01T02:10:15;5.03;;;2.25;;
70985;SDS011;58645;43.068;25.610;2023-03-01T02:12:41;3.90;;;2.40;;
70985;SDS011;58645;43.068;25.610;2023-03-01T02:15:08;3.70;;;2.33;;
70985;SDS011;58645;43.068;25.610;2023-03-01T02:17:33;4.65;;;2.85;;
70985;SDS011;58645;43.068;25.610;2023-03-01T02:20:10;3.95;;;2.35;;
70985;SDS011;58645;43.068;25.610;2023-03-01T02:23:04;4.50;;;2.60;;
70985;SDS011;58645;43.068;25.610;2023-03-01T02:28:34;5.93;;;2.60;;
70985;SDS011;58645;43.068;25.610;2023-03-01T02:31:03;4.88;;;2.58;;
70985;SDS011;58645;43.068;25.610;2023-03-01T02:33:49;4.80;;;2.50;;
70985;SDS011;58645;43.068;25.610;2023-03-01T02:36:17;5.35;;;2.45;;
70985;SDS011;58645;43.068;25.610;2023-03-01T02:38:47;4.90;;;2.70;;
70985;SDS011;58645;43.068;25.610;2023-03-01T02:41:15;4.78;;;3.17;;
70985;SDS011;58645;43.068;25.610;2023-03-01T02:43:42;3.75;;;2.38;;
70985;SDS011;58645;43.068;25.610;2023-03-01T02:46:14;5.97;;;2.70;;
70985;SDS011;58645;43.068;25.610;2023-03-01T02:48:42;4.70;;;2.58;;
70985;SDS011;58645;43.068;25.610;2023-03-01T02:51:14;4.80;;;2.58;;
70985;SDS011;58645;43.068;25.610;2023-03-01T02:53:56;4.15;;;2.60;;
70985;SDS011;58645;43.068;25.610;2023-03-01T02:56:32;5.78;;;3.20;;
70985;SDS011;58645;43.068;25.610;2023-03-01T02:58:58;4.63;;;2.80;;
70985;SDS011;58645;43.068;25.610;2023-03-01T03:04:01;6.18;;;2.80;;
70985;SDS011;58645;43.068;25.610;2023-03-01T03:06:35;4.68;;;2.40;;
70985;SDS011;58645;43.068;25.610;2023-03-01T03:09:01;5.32;;;2.85;;
70985;SDS011;58645;43.068;25.610;2023-03-01T03:11:28;5.32;;;2.80;;
70985;SDS011;58645;43.068;25.610;2023-03-01T03:13:54;4.65;;;2.90;;
70985;SDS011;58645;43.068;25.610;2023-03-01T03:16:21;4.82;;;2.85;;
70985;SDS011;58645;43.068;25.610;2023-03-01T03:18:46;4.22;;;2.63;;
70985;SDS011;58645;43.068;25.610;2023-03-01T03:21:14;4.60;;;2.88;;
70985;SDS011;58645;43.068;25.610;2023-03-01T03:23:41;4.85;;;3.00;;
70985;SDS011;58645;43.068;25.610;2023-03-01T03:26:07;5.97;;;2.85;;
70985;SDS011;58645;43.068;25.610;2023-03-01T03:28:33;6.20;;;3.42;;
70985;SDS011;58645;43.068;25.610;2023-03-01T03:31:00;5.68;;;2.83;;
70985;SDS011;58645;43.068;25.610;2023-03-01T03:33:31;4.95;;;3.05;;
70985;SDS011;58645;43.068;25.610;2023-03-01T03:35:57;5.00;;;3.22;;
70985;SDS011;58645;43.068;25.610;2023-03-01T03:38:24;6.03;;;3.40;;
70985;SDS011;58645;43.068;25.610;2023-03-01T03:40:59;6.20;;;4.03;;
70985;SDS011;58645;43.068;25.610;2023-03-01T03:43:27;6.00;;;3.25;;
70985;SDS011;58645;43.068;25.610;2023-03-01T03:45:54;6.10;;;3.15;;
70985;SDS011;58645;43.068;25.610;2023-03-01T03:48:22;6.47;;;3.67;;
70985;SDS011;58645;43.068;25.610;2023-03-01T03:50:49;5.88;;;3.30;;
70985;SDS011;58645;43.068;25.610;2023-03-01T03:53:17;6.32;;;3.65;;
70985;SDS011;58645;43.068;25.610;2023-03-01T03:55:43;9.27;;;4.07;;
70985;SDS011;58645;43.068;25.610;2023-03-01T03:58:09;7.55;;;3.88;;
70985;SDS011;58645;43.068;25.610;2023-03-01T04:00:55;6.20;;;3.55;;
70985;SDS011;58645;43.068;25.610;2023-03-01T04:03:22;6.88;;;3.88;;
70985;SDS011;58645;43.068;25.610;2023-03-01T04:05:50;6.88;;;3.53;;
70985;SDS011;58645;43.068;25.610;2023-03-01T04:08:17;5.70;;;3.33;;
70985;SDS011;58645;43.068;25.610;2023-03-01T04:10:51;5.95;;;3.22;;
70985;SDS011;58645;43.068;25.610;2023-03-01T04:13:21;6.13;;;3.55;;
70985;SDS011;58645;43.068;25.610;2023-03-01T04:15:48;7.30;;;3.47;;
70985;SDS011;58645;43.068;25.610;2023-03-01T04:18:16;6.10;;;3.17;;
70985;SDS011;58645;43.068;25.610;2023-03-01T04:20:43;6.60;;;4.47;;
70985;SDS011;58645;43.068;25.610;2023-03-01T04:23:11;6.22;;;3.25;;
70985;SDS011;58645;43.068;25.610;2023-03-01T04:25:53;5.85;;;3.50;;
70985;SDS011;58645;43.068;25.610;2023-03-01T04:30:52;8.57;;;4.72;;
70985;SDS011;58645;43.068;25.610;2023-03-01T04:33:20;11.45;;;5.05;;
70985;SDS011;58645;43.068;25.610;2023-03-01T04:35:46;8.65;;;4.85;;
70985;SDS011;58645;43.068;25.610;2023-03-01T04:38:14;12.00;;;5.45;;
70985;SDS011;58645;43.068;25.610;2023-03-01T04:40:41;9.60;;;5.32;;
70985;SDS011;58645;43.068;25.610;2023-03-01T04:43:08;9.32;;;4.75;;
70985;SDS011;58645;43.068;25.610;2023-03-01T04:45:35;8.75;;;5.45;;
70985;SDS011;58645;43.068;25.610;2023-03-01T04:48:01;10.52;;;5.95;;
70985;SDS011;58645;43.068;25.610;2023-03-01T04:50:30;9.23;;;5.25;;
70985;SDS011;58645;43.068;25.610;2023-03-01T04:52:56;9.60;;;5.32;;
70985;SDS011;58645;43.068;25.610;2023-03-01T04:55:28;9.40;;;4.82;;
70985;SDS011;58645;43.068;25.610;2023-03-01T04:57:54;8.57;;;4.72;;
70985;SDS011;58645;43.068;25.610;2023-03-01T05:00:21;8.68;;;4.60;;
70985;SDS011;58645;43.068;25.610;2023-03-01T05:05:18;8.77;;;4.85;;
70985;SDS011;58645;43.068;25.610;2023-03-01T05:07:46;9.90;;;5.00;;
70985;SDS011;58645;43.068;25.610;2023-03-01T05:10:12;8.70;;;4.82;;
70985;SDS011;58645;43.068;25.610;2023-03-01T05:12:38;9.98;;;5.07;;
70985;SDS011;58645;43.068;25.610;2023-03-01T05:15:04;9.88;;;4.90;;
70985;SDS011;58645;43.068;25.610;2023-03-01T05:17:32;11.13;;;5.60;;
70985;SDS011;58645;43.068;25.610;2023-03-01T05:19:59;10.52;;;5.80;;
70985;SDS011;58645;43.068;25.610;2023-03-01T05:22:26;11.25;;;5.32;;
70985;SDS011;58645;43.068;25.610;2023-03-01T05:24:52;10.27;;;4.85;;
70985;SDS011;58645;43.068;25.610;2023-03-01T05:29:47;11.18;;;5.35;;
70985;SDS011;58645;43.068;25.610;2023-03-01T05:32:13;10.90;;;5.50;;
70985;SDS011;58645;43.068;25.610;2023-03-01T05:34:40;11.73;;;5.97;;
70985;SDS011;58645;43.068;25.610;2023-03-01T05:37:07;10.32;;;5.88;;
70985;SDS011;58645;43.068;25.610;2023-03-01T05:39:33;12.43;;;6.22;;
70985;SDS011;58645;43.068;25.610;2023-03-01T05:42:00;16.13;;;6.18;;
70985;SDS011;58645;43.068;25.610;2023-03-01T05:44:27;11.35;;;6.18;;
70985;SDS011;58645;43.068;25.610;2023-03-01T05:46:54;11.05;;;5.43;;
70985;SDS011;58645;43.068;25.610;2023-03-01T05:49:20;10.00;;;5.20;;
70985;SDS011;58645;43.068;25.610;2023-03-01T05:51:50;11.63;;;4.93;;
70985;SDS011;58645;43.068;25.610;2023-03-01T05:54:17;11.75;;;5.60;;
70985;SDS011;58645;43.068;25.610;2023-03-01T05:56:44;11.52;;;5.50;;
70985;SDS011;58645;43.068;25.610;2023-03-01T05:59:10;14.60;;;5.57;;
70985;SDS011;58645;43.068;25.610;2023-03-01T06:01:36;12.45;;;5.63;;
70985;SDS011;58645;43.068;25.610;2023-03-01T06:04:03;11.23;;;4.93;;
70985;SDS011;58645;43.068;25.610;2023-03-01T06:06:30;11.68;;;5.47;;
70985;SDS011;58645;43.068;25.610;2023-03-01T06:08:59;13.45;;;5.35;;
70985;SDS011;58645;43.068;25.610;2023-03-01T06:11:25;13.02;;;5.47;;
70985;SDS011;58645;43.068;25.610;2023-03-01T06:13:51;13.43;;;5.93;;
70985;SDS011;58645;43.068;25.610;2023-03-01T06:16:19;12.73;;;5.93;;
70985;SDS011;58645;43.068;25.610;2023-03-01T06:18:45;11.82;;;5.60;;
70985;SDS011;58645;43.068;25.610;2023-03-01T06:21:11;14.05;;;6.63;;
70985;SDS011;58645;43.068;25.610;2023-03-01T06:23:37;14.23;;;6.25;;
70985;SDS011;58645;43.068;25.610;2023-03-01T06:26:07;17.15;;;8.43;;
70985;SDS011;58645;43.068;25.610;2023-03-01T06:28:34;10.68;;;5.45;;
70985;SDS011;58645;43.068;25.610;2023-03-01T06:31:00;15.07;;;6.38;;
70985;SDS011;58645;43.068;25.610;2023-03-01T06:33:26;16.83;;;6.22;;
70985;SDS011;58645;43.068;25.610;2023-03-01T06:35:54;12.65;;;5.63;;
70985;SDS011;58645;43.068;25.610;2023-03-01T06:38:21;16.38;;;8.00;;
70985;SDS011;58645;43.068;25.610;2023-03-01T06:40:55;16.73;;;7.70;;
70985;SDS011;58645;43.068;25.610;2023-03-01T06:43:22;15.52;;;8.18;;
70985;SDS011;58645;43.068;25.610;2023-03-01T06:46:24;13.73;;;7.32;;
70985;SDS011;58645;43.068;25.610;2023-03-01T06:52:12;10.20;;;4.75;;
70985;SDS011;58645;43.068;25.610;2023-03-01T06:54:38;13.40;;;5.80;;
70985;SDS011;58645;43.068;25.610;2023-03-01T06:57:04;11.63;;;4.35;;
70985;SDS011;58645;43.068;25.610;2023-03-01T06:59:29;9.98;;;5.00;;
70985;SDS011;58645;43.068;25.610;2023-03-01T07:01:56;11.93;;;5.35;;
70985;SDS011;58645;43.068;25.610;2023-03-01T07:04:22;26.75;;;11.93;;
70985;SDS011;58645;43.068;25.610;2023-03-01T07:06:48;14.98;;;6.38;;
70985;SDS011;58645;43.068;25.610;2023-03-01T07:09:20;11.68;;;5.03;;
70985;SDS011;58645;43.068;25.610;2023-03-01T07:11:49;11.80;;;5.55;;
70985;SDS011;58645;43.068;25.610;2023-03-01T07:14:15;14.02;;;7.10;;
70985;SDS011;58645;43.068;25.610;2023-03-01T07:16:41;13.23;;;6.38;;
70985;SDS011;58645;43.068;25.610;2023-03-01T07:19:07;16.92;;;6.50;;
70985;SDS011;58645;43.068;25.610;2023-03-01T07:21:33;18.90;;;7.88;;
70985;SDS011;58645;43.068;25.610;2023-03-01T07:23:59;15.65;;;6.63;;
70985;SDS011;58645;43.068;25.610;2023-03-01T07:26:25;14.70;;;6.43;;
70985;SDS011;58645;43.068;25.610;2023-03-01T07:28:51;20.15;;;7.05;;
70985;SDS011;58645;43.068;25.610;2023-03-01T07:31:17;17.98;;;7.70;;
70985;SDS011;58645;43.068;25.610;2023-03-01T07:33:43;21.27;;;8.60;;
70985;SDS011;58645;43.068;25.610;2023-03-01T07:36:12;21.45;;;9.38;;
70985;SDS011;58645;43.068;25.610;2023-03-01T07:38:38;20.02;;;8.25;;
70985;SDS011;58645;43.068;25.610;2023-03-01T07:41:04;17.42;;;8.32;;
70985;SDS011;58645;43.068;25.610;2023-03-01T07:43:37;19.05;;;8.82;;
70985;SDS011;58645;43.068;25.610;2023-03-01T07:46:16;17.08;;;8.32;;
70985;SDS011;58645;43.068;25.610;2023-03-01T07:51:30;15.60;;;6.45;;
70985;SDS011;58645;43.068;25.610;2023-03-01T07:53:56;11.30;;;5.28;;
70985;SDS011;58645;43.068;25.610;2023-03-01T07:56:22;11.48;;;6.07;;
70985;SDS011;58645;43.068;25.610;2023-03-01T07:58:50;13.80;;;5.72;;
70985;SDS011;58645;43.068;25.610;2023-03-01T08:01:19;14.55;;;6.72;;
70985;SDS011;58645;43.068;25.610;2023-03-01T08:03:46;12.88;;;5.93;;
70985;SDS011;58645;43.068;25.610;2023-03-01T08:06:14;12.38;;;5.60;;
70985;SDS011;58645;43.068;25.610;2023-03-01T08:08:41;12.27;;;5.55;;
70985;SDS011;58645;43.068;25.610;2023-03-01T08:11:07;10.98;;;5.88;;
70985;SDS011;58645;43.068;25.610;2023-03-01T08:13:37;12.48;;;6.95;;
70985;SDS011;58645;43.068;25.610;2023-03-01T08:16:04;13.65;;;7.20;;
70985;SDS011;58645;43.068;25.610;2023-03-01T08:18:32;11.38;;;6.13;;
70985;SDS011;58645;43.068;25.610;2023-03-01T08:21:01;12.40;;;6.78;;
70985;SDS011;58645;43.068;25.610;2023-03-01T08:23:31;11.85;;;6.53;;
70985;SDS011;58645;43.068;25.610;2023-03-01T08:26:04;9.98;;;5.68;;
70985;SDS011;58645;43.068;25.610;2023-03-01T08:28:32;9.48;;;5.30;;
70985;SDS011;58645;43.068;25.610;2023-03-01T08:30:58;7.45;;;4.22;;
70985;SDS011;58645;43.068;25.610;2023-03-01T08:33:27;10.05;;;5.22;;
70985;SDS011;58645;43.068;25.610;2023-03-01T08:36:01;9.13;;;4.65;;
70985;SDS011;58645;43.068;25.610;2023-03-01T08:38:28;7.10;;;4.18;;
70985;SDS011;58645;43.068;25.610;2023-03-01T08:40:55;7.93;;;4.13;;
70985;SDS011;58645;43.068;25.610;2023-03-01T08:43:24;8.65;;;4.28;;
70985;SDS011;58645;43.068;25.610;2023-03-01T08:45:50;8.93;;;4.93;;
70985;SDS011;58645;43.068;25.610;2023-03-01T08:48:16;8.52;;;4.40;;
70985;SDS011;58645;43.068;25.610;2023-03-01T08:50:48;8.23;;;4.55;;
70985;SDS011;58645;43.068;25.610;2023-03-01T08:53:13;8.02;;;4.32;;
70985;SDS011;58645;43.068;25.610;2023-03-01T08:55:39;6.70;;;3.72;;
70985;SDS011;58645;43.068;25.610;2023-03-01T08:58:05;9.40;;;4.40;;
70985;SDS011;58645;43.068;25.610;2023-03-01T09:00:39;7.75;;;4.47;;
70985;SDS011;58645;43.068;25.610;2023-03-01T09:03:05;8.35;;;4.72;;
70985;SDS011;58645;43.068;25.610;2023-03-01T09:07:58;8.38;;;4.80;;
70985;SDS011;58645;43.068;25.610;2023-03-01T09:10:24;8.80;;;4.47;;
70985;SDS011;58645;43.068;25.610;2023-03-01T09:12:50;9.52;;;4.75;;
70985;SDS011;58645;43.068;25.610;2023-03-01T09:15:17;7.32;;;4.40;;
70985;SDS011;58645;43.068;25.610;2023-03-01T09:17:50;9.25;;;5.03;;
70985;SDS011;58645;43.068;25.610;2023-03-01T09:20:16;10.10;;;5.22;;
70985;SDS011;58645;43.068;25.610;2023-03-01T09:22:42;10.02;;;5.35;;
70985;SDS011;58645;43.068;25.610;2023-03-01T09:25:09;12.00;;;5.85;;
70985;SDS011;58645;43.068;25.610;2023-03-01T09:27:35;11.35;;;5.47;;
70985;SDS011;58645;43.068;25.610;2023-03-01T09:30:01;12.00;;;6.10;;
70985;SDS011;58645;43.068;25.610;2023-03-01T09:32:28;9.50;;;4.88;;
70985;SDS011;58645;43.068;25.610;2023-03-01T09:34:55;9.18;;;5.15;;
70985;SDS011;58645;43.068;25.610;2023-03-01T09:37:30;14.10;;;5.93;;
70985;SDS011;58645;43.068;25.610;2023-03-01T09:39:57;13.80;;;6.80;;
70985;SDS011;58645;43.068;25.610;2023-03-01T09:42:23;14.30;;;7.57;;
70985;SDS011;58645;43.068;25.610;2023-03-01T09:44:51;14.02;;;7.35;;
70985;SDS011;58645;43.068;25.610;2023-03-01T09:47:33;14.60;;;7.63;;
70985;SDS011;58645;43.068;25.610;2023-03-01T09:50:13;17.02;;;8.38;;
70985;SDS011;58645;43.068;25.610;2023-03-01T09:55:59;15.50;;;7.72;;
70985;SDS011;58645;43.068;25.610;2023-03-01T10:01:33;12.40;;;6.20;;
70985;SDS011;58645;43.068;25.610;2023-03-01T10:09:37;16.58;;;6.90;;
70985;SDS011;58645;43.068;25.610;2023-03-01T10:12:08;13.45;;;6.22;;
70985;SDS011;58645;43.068;25.610;2023-03-01T10:14:38;12.02;;;5.82;;
70985;SDS011;58645;43.068;25.610;2023-03-01T10:17:12;17.73;;;6.20;;
70985;SDS011;58645;43.068;25.610;2023-03-01T10:19:52;12.93;;;6.85;;
70985;SDS011;58645;43.068;25.610;2023-03-01T10:22:24;14.70;;;6.40;;
70985;SDS011;58645;43.068;25.610;2023-03-01T10:24:53;13.38;;;7.10;;
70985;SDS011;58645;43.068;25.610;2023-03-01T10:27:23;12.55;;;6.25;;
70985;SDS011;58645;43.068;25.610;2023-03-01T10:30:04;13.18;;;5.95;;
70985;SDS011;58645;43.068;25.610;2023-03-01T10:32:45;11.25;;;5.68;;
70985;SDS011;58645;43.068;25.610;2023-03-01T10:35:17;13.27;;;5.82;;
70985;SDS011;58645;43.068;25.610;2023-03-01T10:38:07;12.55;;;5.93;;
70985;SDS011;58645;43.068;25.610;2023-03-01T10:40:36;11.88;;;5.68;;
70985;SDS011;58645;43.068;25.610;2023-03-01T10:43:14;12.60;;;6.30;;
70985;SDS011;58645;43.068;25.610;2023-03-01T10:45:40;11.15;;;6.53;;
70985;SDS011;58645;43.068;25.610;2023-03-01T10:48:17;12.73;;;6.25;;
70985;SDS011;58645;43.068;25.610;2023-03-01T10:50:49;12.00;;;5.43;;
70985;SDS011;58645;43.068;25.610;2023-03-01T10:56:17;11.85;;;6.10;;
70985;SDS011;58645;43.068;25.610;2023-03-01T10:58:59;9.82;;;5.57;;
70985;SDS011;58645;43.068;25.610;2023-03-01T11:01:28;10.98;;;5.85;;
70985;SDS011;58645;43.068;25.610;2023-03-01T11:06:32;11.20;;;5.55;;
70985;SDS011;58645;43.068;25.610;2023-03-01T11:09:18;13.23;;;6.57;;
70985;SDS011;58645;43.068;25.610;2023-03-01T11:11:46;11.13;;;5.75;;
70985;SDS011;58645;43.068;25.610;2023-03-01T11:14:24;12.23;;;6.05;;
70985;SDS011;58645;43.068;25.610;2023-03-01T11:16:59;13.10;;;7.25;;
70985;SDS011;58645;43.068;25.610;2023-03-01T11:19:40;11.45;;;6.43;;
70985;SDS011;58645;43.068;25.610;2023-03-01T11:24:42;11.70;;;6.35;;
70985;SDS011;58645;43.068;25.610;2023-03-01T11:27:23;14.48;;;7.25;;
70985;SDS011;58645;43.068;25.610;2023-03-01T11:33:05;11.93;;;6.22;;
70985;SDS011;58645;43.068;25.610;2023-03-01T11:35:49;13.63;;;6.88;;
70985;SDS011;58645;43.068;25.610;2023-03-01T11:38:26;15.00;;;6.95;;
70985;SDS011;58645;43.068;25.610;2023-03-01T11:43:49;16.05;;;7.85;;
70985;SDS011;58645;43.068;25.610;2023-03-01T11:49:01;15.15;;;7.47;;
70985;SDS011;58645;43.068;25.610;2023-03-01T12:14:11;34.15;;;14.68;;
70985;SDS011;58645;43.068;25.610;2023-03-01T12:25:41;18.58;;;9.48;;
70985;SDS011;58645;43.068;25.610;2023-03-01T12:34:17;19.77;;;8.68;;
70985;SDS011;58645;43.068;25.610;2023-03-01T12:50:51;10.68;;;6.00;;
70985;SDS011;58645;43.068;25.610;2023-03-01T12:53:22;9.30;;;5.50;;
70985;SDS011;58645;43.068;25.610;2023-03-01T12:55:49;10.38;;;5.35;;
70985;SDS011;58645;43.068;25.610;2023-03-01T13:00:50;11.05;;;5.43;;
70985;SDS011;58645;43.068;25.610;2023-03-01T13:06:24;8.95;;;4.85;;
70985;SDS011;58645;43.068;25.610;2023-03-01T13:11:51;11.23;;;4.93;;
70985;SDS011;58645;43.068;25.610;2023-03-01T13:16:45;9.75;;;5.13;;
70985;SDS011;58645;43.068;25.610;2023-03-01T13:19:21;11.63;;;5.20;;
70985;SDS011;58645;43.068;25.610;2023-03-01T13:21:52;9.50;;;5.55;;
70985;SDS011;58645;43.068;25.610;2023-03-01T13:32:19;10.82;;;6.25;;
70985;SDS011;58645;43.068;25.610;2023-03-01T13:34:47;9.63;;;5.43;;
70985;SDS011;58645;43.068;25.610;2023-03-01T13:37:19;12.07;;;6.25;;
70985;SDS011;58645;43.068;25.610;2023-03-01T13:39:54;14.05;;;5.82;;
70985;SDS011;58645;43.068;25.610;2023-03-01T13:42:30;10.35;;;5.78;;
70985;SDS011;58645;43.068;25.610;2023-03-01T13:45:12;14.10;;;6.70;;
70985;SDS011;58645;43.068;25.610;2023-03-01T13:47:45;13.20;;;6.82;;
70985;SDS011;58645;43.068;25.610;2023-03-01T13:50:22;11.90;;;6.30;;
70985;SDS011;58645;43.068;25.610;2023-03-01T13:55:24;11.85;;;6.28;;
70985;SDS011;58645;43.068;25.610;2023-03-01T13:58:03;12.75;;;6.18;;
70985;SDS011;58645;43.068;25.610;2023-03-01T14:00:40;14.32;;;6.75;;
70985;SDS011;58645;43.068;25.610;2023-03-01T14:03:10;12.90;;;6.50;;
70985;SDS011;58645;43.068;25.610;2023-03-01T14:05:37;16.48;;;7.18;;
70985;SDS011;58645;43.068;25.610;2023-03-01T14:08:04;14.90;;;6.30;;
70985;SDS011;58645;43.068;25.610;2023-03-01T14:19:13;12.02;;;5.80;;
70985;SDS011;58645;43.068;25.610;2023-03-01T14:26:45;11.25;;;5.55;;
70985;SDS011;58645;43.068;25.610;2023-03-01T14:29:27;13.48;;;6.63;;
70985;SDS011;58645;43.068;25.610;2023-03-01T14:32:11;11.10;;;5.47;;
70985;SDS011;58645;43.068;25.610;2023-03-01T14:34:45;11.07;;;5.28;;
70985;SDS011;58645;43.068;25.610;2023-03-01T14:39:45;11.80;;;5.40;;
70985;SDS011;58645;43.068;25.610;2023-03-01T14:42:11;11.43;;;5.68;;
70985;SDS011;58645;43.068;25.610;2023-03-01T14:44:40;15.13;;;6.40;;
70985;SDS011;58645;43.068;25.610;2023-03-01T14:47:15;14.70;;;6.38;;
70985;SDS011;58645;43.068;25.610;2023-03-01T14:49:49;15.02;;;6.70;;
70985;SDS011;58645;43.068;25.610;2023-03-01T14:52:21;10.65;;;5.63;;
70985;SDS011;58645;43.068;25.610;2023-03-01T14:54:51;13.93;;;6.57;;
70985;SDS011;58645;43.068;25.610;2023-03-01T14:57:23;12.20;;;6.28;;
70985;SDS011;58645;43.068;25.610;2023-03-01T15:00:00;10.82;;;5.28;;
70985;SDS011;58645;43.068;25.610;2023-03-01T15:02:31;13.68;;;5.82;;
70985;SDS011;58645;43.068;25.610;2023-03-01T15:05:00;13.30;;;6.05;;
70985;SDS011;58645;43.068;25.610;2023-03-01T15:07:33;13.38;;;6.18;;
70985;SDS011;58645;43.068;25.610;2023-03-01T15:10:03;12.90;;;5.75;;
70985;SDS011;58645;43.068;25.610;2023-03-01T15:14:56;14.73;;;6.22;;
70985;SDS011;58645;43.068;25.610;2023-03-01T15:17:29;14.18;;;6.68;;
70985;SDS011;58645;43.068;25.610;2023-03-01T15:20:02;13.38;;;6.85;;
70985;SDS011;58645;43.068;25.610;2023-03-01T15:22:30;13.75;;;6.68;;
70985;SDS011;58645;43.068;25.610;2023-03-01T15:24:58;17.33;;;7.15;;
70985;SDS011;58645;43.068;25.610;2023-03-01T15:27:24;14.40;;;7.28;;
70985;SDS011;58645;43.068;25.610;2023-03-01T15:29:56;11.80;;;6.30;;
70985;SDS011;58645;43.068;25.610;2023-03-01T15:32:26;13.80;;;6.28;;
70985;SDS011;58645;43.068;25.610;2023-03-01T15:34:52;15.25;;;7.30;;
70985;SDS011;58645;43.068;25.610;2023-03-01T15:40:02;15.10;;;7.03;;
70985;SDS011;58645;43.068;25.610;2023-03-01T15:42:42;16.77;;;7.70;;
70985;SDS011;58645;43.068;25.610;2023-03-01T15:47:49;16.85;;;7.70;;
70985;SDS011;58645;43.068;25.610;2023-03-01T15:52:52;16.90;;;8.20;;
70985;SDS011;58645;43.068;25.610;2023-03-01T15:55:23;18.88;;;8.85;;
70985;SDS011;58645;43.068;25.610;2023-03-01T15:58:13;17.58;;;9.57;;
70985;SDS011;58645;43.068;25.610;2023-03-01T16:00:44;21.67;;;9.70;;
70985;SDS011;58645;43.068;25.610;2023-03-01T16:03:13;45.55;;;22.75;;
70985;SDS011;58645;43.068;25.610;2023-03-01T16:05:46;30.73;;;16.13;;
70985;SDS011;58645;43.068;25.610;2023-03-01T16:10:39;69.53;;;29.25;;
70985;SDS011;58645;43.068;25.610;2023-03-01T16:13:09;60.80;;;28.02;;
70985;SDS011;58645;43.068;25.610;2023-03-01T16:15:35;32.40;;;13.00;;
70985;SDS011;58645;43.068;25.610;2023-03-01T16:18:03;24.95;;;11.57;;
70985;SDS011;58645;43.068;25.610;2023-03-01T16:20:30;26.40;;;13.48;;
70985;SDS011;58645;43.068;25.610;2023-03-01T16:23:00;20.38;;;11.43;;
70985;SDS011;58645;43.068;25.610;2023-03-01T16:25:27;24.77;;;11.00;;
70985;SDS011;58645;43.068;25.610;2023-03-01T16:30:21;22.60;;;11.98;;
70985;SDS011;58645;43.068;25.610;2023-03-01T16:35:14;25.38;;;11.63;;
70985;SDS011;58645;43.068;25.610;2023-03-01T16:37:43;23.15;;;11.95;;
70985;SDS011;58645;43.068;25.610;2023-03-01T16:40:19;26.23;;;11.60;;
70985;SDS011;58645;43.068;25.610;2023-03-01T16:42:46;24.73;;;11.38;;
70985;SDS011;58645;43.068;25.610;2023-03-01T16:45:12;27.98;;;13.38;;
70985;SDS011;58645;43.068;25.610;2023-03-01T16:47:38;25.42;;;12.75;;
70985;SDS011;58645;43.068;25.610;2023-03-01T16:50:04;25.83;;;12.70;;
70985;SDS011;58645;43.068;25.610;2023-03-01T16:52:30;26.20;;;13.18;;
70985;SDS011;58645;43.068;25.610;2023-03-01T16:54:56;28.80;;;13.63;;
70985;SDS011;58645;43.068;25.610;2023-03-01T16:57:22;30.42;;;15.05;;
70985;SDS011;58645;43.068;25.610;2023-03-01T16:59:51;29.08;;;14.30;;
70985;SDS011;58645;43.068;25.610;2023-03-01T17:02:18;30.10;;;14.25;;
70985;SDS011;58645;43.068;25.610;2023-03-01T17:04:45;36.50;;;16.38;;
70985;SDS011;58645;43.068;25.610;2023-03-01T17:07:16;37.38;;;17.33;;
70985;SDS011;58645;43.068;25.610;2023-03-01T17:09:42;34.33;;;15.93;;
70985;SDS011;58645;43.068;25.610;2023-03-01T17:12:08;34.15;;;16.15;;
70985;SDS011;58645;43.068;25.610;2023-03-01T17:14:34;33.30;;;16.58;;
70985;SDS011;58645;43.068;25.610;2023-03-01T17:17:00;37.22;;;18.70;;
70985;SDS011;58645;43.068;25.610;2023-03-01T17:19:27;29.58;;;13.98;;
70985;SDS011;58645;43.068;25.610;2023-03-01T17:21:53;33.10;;;15.73;;
70985;SDS011;58645;43.068;25.610;2023-03-01T17:24:19;37.38;;;16.10;;
70985;SDS011;58645;43.068;25.610;2023-03-01T17:26:45;31.02;;;14.77;;
70985;SDS011;58645;43.068;25.610;2023-03-01T17:29:11;29.80;;;14.82;;